Time;durP1;ratioP1;P1;durP2;ratioP2;P2;SDS_P1;SDS_P2;PMS_P1;PMS_P2;Temp;Humidity;BMP_temperature;BMP_pressure;BME280_temperature;BME280_humidity;BME280_pressure;Samples;Min_cycle;Max_cycle;Signal;HPM_P1;HPM_P2
2022/08/26 00:00:46;;;;;;;10.50;7.93;;;23.30;64.30;;;;;;5032202;28;20096;-72
2022/08/26 00:03:13;;;;;;;11.85;7.85;;;23.30;64.40;;;;;;5031703;28;20025;-72
2022/08/26 00:05:40;;;;;;;8.65;6.68;;;23.20;64.50;;;;;;5014120;28;20060;-73
2022/08/26 00:08:07;;;;;;;12.98;7.57;;;23.20;64.30;;;;;;5013944;28;20034;-72
2022/08/26 00:10:33;;;;;;;15.35;9.02;;;23.20;64.30;;;;;;5031977;28;20052;-72
2022/08/26 00:12:58;;;;;;;11.10;7.65;;;23.20;64.70;;;;;;5031876;28;20483;-73
2022/08/26 00:15:24;;;;;;;13.55;7.50;;;23.10;64.60;;;;;;5031675;28;20032;-73
2022/08/26 00:17:51;;;;;;;14.38;7.13;;;23.10;64.60;;;;;;5013630;28;20112;-72
2022/08/26 00:20:22;;;;;;;13.68;7.68;;;23.10;64.50;;;;;;5031487;28;20028;-73
2022/08/26 00:22:48;;;;;;;11.43;7.25;;;23.10;64.70;;;;;;5027406;28;20478;-72
2022/08/26 00:25:14;;;;;;;12.85;7.65;;;23.10;64.60;;;;;;5031555;28;20029;-72
2022/08/26 00:27:42;;;;;;;24.45;8.30;;;23.00;64.60;;;;;;5031381;28;20036;-73
2022/08/26 00:30:12;;;;;;;10.70;7.95;;;23.00;64.70;;;;;;5030032;28;20026;-73
2022/08/26 00:32:38;;;;;;;9.05;7.55;;;23.00;64.90;;;;;;5031431;28;20081;-73
2022/08/26 00:35:05;;;;;;;12.50;7.07;;;22.90;64.80;;;;;;5033492;28;20021;-72
2022/08/26 00:37:31;;;;;;;11.18;7.47;;;22.90;64.90;;;;;;5030966;28;20026;-72
2022/08/26 00:39:57;;;;;;;10.32;6.90;;;22.90;64.90;;;;;;5031080;28;20037;-73
2022/08/26 00:42:23;;;;;;;12.23;7.05;;;22.90;65.00;;;;;;5032482;28;20021;-72
2022/08/26 00:44:49;;;;;;;10.52;7.20;;;22.80;64.90;;;;;;5031227;28;20026;-72
2022/08/26 00:47:29;;;;;;;16.17;8.15;;;22.80;65.10;;;;;;5014860;28;20060;-72
2022/08/26 00:49:55;;;;;;;9.85;7.22;;;22.80;65.50;;;;;;5034742;28;20961;-72
2022/08/26 00:52:23;;;;;;;10.30;7.40;;;22.80;65.30;;;;;;5032794;28;20103;-72
2022/08/26 00:54:54;;;;;;;11.75;7.85;;;22.70;65.30;;;;;;5035225;28;20028;-72
2022/08/26 00:57:21;;;;;;;16.65;7.72;;;22.70;65.50;;;;;;5035856;28;20021;-73
2022/08/26 00:59:51;;;;;;;11.73;7.15;;;22.70;65.60;;;;;;5035102;28;20029;-73
2022/08/26 01:02:17;;;;;;;11.23;7.10;;;22.70;65.80;;;;;;5035067;28;20057;-72
2022/08/26 01:04:43;;;;;;;11.07;7.85;;;22.60;65.70;;;;;;5017267;28;20049;-73
2022/08/26 01:07:09;;;;;;;18.83;8.68;;;22.70;66.00;;;;;;5035048;28;20036;-72
2022/08/26 01:09:35;;;;;;;11.05;8.02;;;22.60;66.10;;;;;;5035086;28;20032;-72
2022/08/26 01:12:02;;;;;;;12.93;6.93;;;22.60;65.90;;;;;;5014631;28;20022;-72
2022/08/26 01:14:31;;;;;;;10.75;6.93;;;22.60;66.00;;;;;;5035019;28;20024;-72
2022/08/26 01:16:57;;;;;;;13.77;8.07;;;22.60;66.10;;;;;;5035159;28;20083;-72
2022/08/26 01:19:36;;;;;;;11.63;7.97;;;22.60;66.00;;;;;;5034988;28;20010;-72
2022/08/26 01:22:18;;;;;;;11.93;7.00;;;22.50;66.10;;;;;;5035151;28;20161;-72
2022/08/26 01:24:45;;;;;;;10.73;7.13;;;22.60;66.10;;;;;;5035293;28;20032;-72
2022/08/26 01:27:14;;;;;;;9.07;7.20;;;22.50;66.00;;;;;;5035304;28;20525;-72
2022/08/26 01:29:42;;;;;;;15.48;8.38;;;22.50;66.20;;;;;;5035174;28;20049;-72
2022/08/26 01:32:13;;;;;;;15.68;7.95;;;22.50;66.60;;;;;;5035035;28;20033;-72
2022/08/26 01:34:39;;;;;;;12.25;8.55;;;22.50;66.60;;;;;;5033862;28;20049;-72
2022/08/26 01:37:15;;;;;;;16.58;8.60;;;22.50;66.80;;;;;;5034955;28;20047;-73
2022/08/26 01:39:43;;;;;;;12.07;7.88;;;22.50;66.70;;;;;;5034988;28;20365;-73
2022/08/26 01:42:12;;;;;;;13.60;7.43;;;22.50;66.60;;;;;;5034957;28;20103;-72
2022/08/26 01:44:46;;;;;;;9.60;7.80;;;22.50;66.60;;;;;;5017270;28;20022;-72
2022/08/26 01:47:16;;;;;;;10.02;7.40;;;22.50;66.80;;;;;;5033927;28;20033;-72
2022/08/26 01:49:44;;;;;;;11.25;7.65;;;22.50;66.80;;;;;;5036266;28;20025;-73
2022/08/26 01:52:14;;;;;;;11.85;7.80;;;22.50;67.00;;;;;;5036153;28;20053;-72
2022/08/26 01:54:40;;;;;;;12.70;8.25;;;22.50;67.20;;;;;;5035956;28;20029;-73
2022/08/26 01:57:06;;;;;;;13.10;8.35;;;22.50;67.40;;;;;;5048615;28;20024;-72
2022/08/26 01:59:33;;;;;;;19.17;8.45;;;22.60;68.30;;;;;;5053381;28;20032;-72
2022/08/26 02:01:59;;;;;;;15.48;8.27;;;22.50;67.60;;;;;;5036725;28;20510;-72
2022/08/26 02:04:40;;;;;;;11.98;7.90;;;22.60;67.70;;;;;;5034241;28;20025;-72
2022/08/26 02:07:08;;;;;;;12.20;7.57;;;22.60;67.60;;;;;;5034200;28;20096;-72
2022/08/26 02:09:38;;;;;;;11.88;7.65;;;22.60;67.30;;;;;;5016372;28;20033;-72
2022/08/26 02:12:05;;;;;;;8.27;7.07;;;22.70;67.40;;;;;;5034122;28;20387;-72
2022/08/26 02:14:45;;;;;;;12.25;7.35;;;22.70;67.20;;;;;;5034005;28;20029;-72
2022/08/26 02:17:11;;;;;;;10.32;7.00;;;22.70;67.30;;;;;;5032784;28;20116;-72
2022/08/26 02:19:40;;;;;;;9.70;6.75;;;22.70;67.20;;;;;;5033957;28;20018;-72
2022/08/26 02:22:12;;;;;;;20.73;7.47;;;22.80;67.30;;;;;;5028115;28;20042;-72
2022/08/26 02:24:58;;;;;;;17.92;7.88;;;22.80;67.30;;;;;;5033828;28;20022;-73
2022/08/26 02:27:29;;;;;;;12.85;7.72;;;22.80;67.30;;;;;;5049033;28;20029;-72
2022/08/26 02:30:22;;;;;;;10.52;7.20;;;22.80;67.30;;;;;;5053794;28;20045;-72
2022/08/26 02:32:48;;;;;;;11.68;7.00;;;22.90;67.20;;;;;;5053619;28;20166;-72
2022/08/26 02:35:15;;;;;;;10.07;7.32;;;22.90;67.00;;;;;;5053661;28;20033;-72
2022/08/26 02:37:41;;;;;;;13.00;7.53;;;22.90;67.10;;;;;;5053350;28;20028;-72
2022/08/26 02:40:10;;;;;;;13.63;7.50;;;22.90;66.90;;;;;;5053509;28;20033;-72
2022/08/26 02:42:36;;;;;;;11.43;7.70;;;23.00;67.00;;;;;;5053445;28;20020;-72
2022/08/26 02:45:02;;;;;;;9.07;6.85;;;23.00;66.90;;;;;;5035592;28;20021;-72
2022/08/26 02:47:28;;;;;;;12.57;7.18;;;23.00;66.90;;;;;;5053447;28;20032;-73
2022/08/26 02:49:54;;;;;;;9.93;6.85;;;23.00;66.80;;;;;;5035530;28;20033;-72
2022/08/26 02:52:20;;;;;;;10.82;7.50;;;23.00;66.80;;;;;;5053367;28;20071;-72
2022/08/26 02:54:46;;;;;;;10.80;7.43;;;23.00;66.70;;;;;;5053264;28;20048;-72
2022/08/26 02:57:12;;;;;;;12.32;8.40;;;23.00;66.80;;;;;;5039262;28;20069;-72
2022/08/26 02:59:40;;;;;;;15.88;7.10;;;23.00;66.80;;;;;;5033035;28;20029;-72
2022/08/26 03:02:09;;;;;;;14.95;8.73;;;23.00;66.80;;;;;;5033496;28;20029;-72
2022/08/26 03:04:36;;;;;;;13.32;7.72;;;23.10;66.70;;;;;;5031949;28;20021;-72
2022/08/26 03:07:04;;;;;;;11.15;7.72;;;23.10;66.70;;;;;;5031890;28;20033;-72
2022/08/26 03:09:30;;;;;;;8.15;6.70;;;23.10;66.60;;;;;;5015168;28;20053;-72
2022/08/26 03:11:56;;;;;;;16.35;7.03;;;23.10;66.50;;;;;;5033009;28;20048;-72
2022/08/26 03:14:22;;;;;;;10.57;6.93;;;23.10;67.30;;;;;;5033071;28;20025;-72
2022/08/26 03:16:52;;;;;;;11.90;7.22;;;23.10;66.50;;;;;;5032946;28;20120;-72
2022/08/26 03:19:20;;;;;;;15.43;7.35;;;23.10;66.40;;;;;;5031608;28;20490;-72
2022/08/26 03:21:46;;;;;;;14.45;8.38;;;23.10;66.50;;;;;;5032605;28;20499;-72
2022/08/26 03:24:12;;;;;;;18.10;7.88;;;23.10;66.60;;;;;;5032846;28;20032;-72
2022/08/26 03:26:38;;;;;;;14.95;7.57;;;23.10;66.60;;;;;;5041033;28;20036;-72
2022/08/26 03:31:49;;;;;;;9.25;7.07;;;23.10;66.40;;;;;;5052568;28;20039;-73
2022/08/26 03:34:17;;;;;;;9.85;6.65;;;23.10;66.40;;;;;;5052523;28;20100;-72
2022/08/26 03:36:43;;;;;;;12.00;6.90;;;23.10;66.40;;;;;;5052347;28;20017;-73
2022/08/26 03:39:11;;;;;;;10.32;6.57;;;23.10;66.40;;;;;;5052362;28;20025;-72
2022/08/26 03:41:37;;;;;;;10.85;7.97;;;23.10;66.40;;;;;;5052131;28;20391;-72
2022/08/26 03:44:05;;;;;;;11.57;7.70;;;23.10;66.50;;;;;;5051967;28;20021;-72
2022/08/26 03:46:32;;;;;;;13.75;7.60;;;23.10;66.50;;;;;;5051807;28;20033;-73
2022/08/26 03:48:59;;;;;;;9.85;7.32;;;23.10;66.50;;;;;;5053297;28;20029;-72
2022/08/26 03:51:25;;;;;;;13.00;6.78;;;23.10;66.60;;;;;;5053802;28;20025;-72
2022/08/26 03:53:51;;;;;;;10.90;6.80;;;23.00;66.50;;;;;;5052975;28;20025;-72
2022/08/26 03:56:17;;;;;;;18.05;7.72;;;23.10;66.70;;;;;;5052895;28;20036;-72
2022/08/26 03:58:43;;;;;;;11.45;6.70;;;23.00;66.60;;;;;;5040797;28;20364;-72
2022/08/26 04:01:11;;;;;;;11.80;7.20;;;23.00;66.60;;;;;;5034244;28;20021;-72
2022/08/26 04:06:21;;;;;;;14.07;7.88;;;23.10;66.60;;;;;;5032104;28;20559;-72
2022/08/26 04:08:48;;;;;;;15.65;7.90;;;23.10;66.60;;;;;;5030644;28;20033;-72
2022/08/26 04:11:23;;;;;;;13.75;7.45;;;23.10;66.60;;;;;;5031925;28;20151;-72
2022/08/26 04:13:51;;;;;;;12.38;7.55;;;23.10;66.80;;;;;;5014061;28;20429;-73
2022/08/26 04:16:17;;;;;;;14.48;6.75;;;23.00;66.70;;;;;;5031699;28;20026;-72
2022/08/26 04:18:43;;;;;;;16.20;8.00;;;23.10;66.70;;;;;;5031694;28;20036;-72
2022/08/26 04:21:11;;;;;;;12.55;6.80;;;23.10;66.90;;;;;;5031216;28;20497;-72
2022/08/26 04:23:37;;;;;;;8.30;7.03;;;23.10;66.80;;;;;;5025678;28;20018;-72
2022/08/26 04:26:04;;;;;;;10.30;7.93;;;23.10;66.80;;;;;;5034526;28;20386;-72
2022/08/26 04:28:30;;;;;;;10.88;7.35;;;23.10;66.80;;;;;;5051323;28;20091;-72
2022/08/26 04:30:56;;;;;;;12.60;7.10;;;23.10;66.80;;;;;;5051436;28;20025;-72
2022/08/26 04:33:22;;;;;;;10.80;8.05;;;23.10;66.80;;;;;;5051607;28;20156;-72
2022/08/26 04:35:48;;;;;;;14.90;7.75;;;23.10;66.80;;;;;;5033847;28;20014;-72
2022/08/26 04:38:15;;;;;;;13.82;7.40;;;23.10;66.80;;;;;;5051665;28;20021;-72
2022/08/26 04:40:45;;;;;;;13.82;7.22;;;23.20;67.00;;;;;;5051817;28;20018;-71
2022/08/26 04:43:12;;;;;;;12.00;6.70;;;23.20;67.00;;;;;;5033432;28;20049;-72
2022/08/26 04:45:39;;;;;;;12.57;7.25;;;23.20;66.90;;;;;;5033560;28;20438;-72
2022/08/26 04:48:05;;;;;;;13.18;7.93;;;23.30;67.00;;;;;;5051505;28;20052;-72
2022/08/26 04:50:31;;;;;;;9.25;6.75;;;23.30;66.90;;;;;;5050940;28;20124;-72
2022/08/26 04:52:57;;;;;;;12.82;7.18;;;23.30;66.90;;;;;;5033287;28;20104;-72
2022/08/26 04:55:24;;;;;;;19.17;7.68;;;23.40;66.90;;;;;;5051117;28;20017;-72
2022/08/26 04:57:50;;;;;;;11.55;7.20;;;23.40;66.80;;;;;;5049898;28;20516;-72
2022/08/26 05:00:16;;;;;;;12.70;7.82;;;23.50;66.80;;;;;;5050212;28;20049;-72
2022/08/26 05:02:42;;;;;;;11.80;7.30;;;23.50;66.70;;;;;;5031202;28;20022;-72
2022/08/26 05:05:09;;;;;;;16.20;7.50;;;23.60;66.50;;;;;;5031349;28;20026;-72
2022/08/26 05:07:35;;;;;;;13.82;7.40;;;23.60;66.40;;;;;;5031432;28;20117;-72
2022/08/26 05:10:01;;;;;;;13.50;7.38;;;23.70;66.40;;;;;;5031472;28;20096;-72
2022/08/26 05:12:30;;;;;;;8.63;6.40;;;23.70;66.30;;;;;;5048131;28;20063;-72
2022/08/26 05:14:56;;;;;;;11.88;7.78;;;23.70;66.00;;;;;;5043768;28;20393;-72
2022/08/26 05:17:22;;;;;;;13.00;7.45;;;23.80;66.00;;;;;;5031392;28;20025;-72
2022/08/26 05:19:49;;;;;;;13.35;8.32;;;23.80;65.90;;;;;;5030160;28;20113;-72
2022/08/26 05:22:16;;;;;;;10.95;7.93;;;23.80;65.80;;;;;;5031037;28;20473;-72
2022/08/26 05:24:42;;;;;;;10.75;7.03;;;23.80;65.60;;;;;;5031345;28;20053;-72
2022/08/26 05:27:08;;;;;;;12.18;6.80;;;23.90;65.50;;;;;;5042741;28;20360;-72
2022/08/26 05:29:34;;;;;;;15.88;8.43;;;23.90;65.50;;;;;;5051166;28;20028;-72
2022/08/26 05:32:00;;;;;;;15.77;7.18;;;23.90;66.10;;;;;;5036361;28;20030;-72
2022/08/26 05:34:26;;;;;;;9.98;7.35;;;24.00;65.20;;;;;;5033485;28;20021;-72
2022/08/26 05:36:52;;;;;;;15.52;6.82;;;24.00;65.00;;;;;;5034682;28;20092;-72
2022/08/26 05:39:20;;;;;;;14.63;7.88;;;24.00;65.00;;;;;;5034312;28;20470;-72
2022/08/26 05:41:46;;;;;;;8.93;7.28;;;24.10;64.90;;;;;;5035132;28;20029;-72
2022/08/26 05:44:14;;;;;;;10.73;7.45;;;24.10;64.60;;;;;;5035195;28;20029;-73
2022/08/26 05:46:40;;;;;;;9.82;6.72;;;24.10;64.30;;;;;;5016467;28;20029;-72
2022/08/26 05:49:07;;;;;;;13.43;7.05;;;24.20;64.20;;;;;;5012868;28;20064;-72
2022/08/26 05:51:34;;;;;;;9.90;6.80;;;24.20;64.20;;;;;;5035392;28;20052;-73
2022/08/26 05:54:05;;;;;;;13.30;7.28;;;24.20;64.10;;;;;;5033677;28;20490;-73
2022/08/26 05:56:31;;;;;;;14.88;7.68;;;24.30;64.10;;;;;;5016593;28;20498;-73
2022/08/26 05:58:57;;;;;;;14.55;7.78;;;24.40;64.20;;;;;;5033711;28;20025;-73
2022/08/26 06:01:25;;;;;;;13.88;8.05;;;24.40;64.10;;;;;;5034553;28;20022;-73
2022/08/26 06:03:53;;;;;;;16.77;8.32;;;24.50;63.90;;;;;;5035112;28;20474;-73
2022/08/26 06:06:23;;;;;;;14.68;7.47;;;24.50;63.80;;;;;;5024137;28;20393;-73
2022/08/26 06:08:49;;;;;;;20.25;8.43;;;24.60;63.70;;;;;;5054917;28;20188;-73
2022/08/26 06:11:18;;;;;;;15.73;7.85;;;24.60;63.60;;;;;;5036890;28;20064;-73
2022/08/26 06:13:45;;;;;;;13.80;7.72;;;24.60;63.50;;;;;;5047635;28;20124;-73
2022/08/26 06:16:13;;;;;;;12.48;7.88;;;24.70;63.50;;;;;;5034794;28;20028;-73
2022/08/26 06:18:43;;;;;;;14.73;8.30;;;24.80;63.50;;;;;;5034784;28;20083;-73
2022/08/26 06:21:29;;;;;;;9.98;7.55;;;24.80;63.20;;;;;;5033447;28;20047;-73
2022/08/26 06:26:50;;;;;;;14.73;7.72;;;25.00;63.10;;;;;;5054283;28;20500;-73
2022/08/26 06:29:17;;;;;;;12.68;8.18;;;25.00;62.90;;;;;;5054721;28;20028;-73
2022/08/26 06:31:43;;;;;;;12.32;8.00;;;25.10;62.70;;;;;;5045436;28;20037;-73
2022/08/26 06:34:08;;;;;;;14.45;7.70;;;25.20;62.80;;;;;;5034708;28;20026;-73
2022/08/26 06:36:34;;;;;;;13.35;7.15;;;25.20;62.60;;;;;;5034593;28;20026;-72
2022/08/26 06:39:08;;;;;;;11.75;7.57;;;25.30;62.50;;;;;;5034526;28;20029;-72
2022/08/26 06:41:34;;;;;;;9.93;7.30;;;25.40;62.30;;;;;;5049891;28;20021;-72
2022/08/26 06:44:01;;;;;;;16.98;7.57;;;25.50;62.40;;;;;;5034484;28;20076;-72
2022/08/26 06:46:28;;;;;;;15.52;8.02;;;25.50;61.90;;;;;;5033964;28;20112;-72
2022/08/26 06:48:56;;;;;;;11.82;8.32;;;25.70;61.80;;;;;;5034500;28;20387;-72
2022/08/26 06:51:29;;;;;;;15.25;8.55;;;25.70;61.30;;;;;;5034410;28;20549;-73
2022/08/26 06:53:58;;;;;;;12.77;8.23;;;25.70;61.00;;;;;;5034327;28;20029;-72
2022/08/26 06:56:28;;;;;;;14.77;7.53;;;25.80;61.00;;;;;;5038580;28;20386;-72
2022/08/26 06:58:54;;;;;;;17.65;8.63;;;25.90;60.70;;;;;;5053575;28;20075;-73
2022/08/26 07:01:27;;;;;;;17.15;8.32;;;26.00;60.20;;;;;;5036298;28;20501;-73
2022/08/26 07:03:56;;;;;;;18.15;8.90;;;26.00;59.70;;;;;;5054099;28;20024;-73
2022/08/26 07:06:22;;;;;;;21.58;13.88;;;26.10;60.40;;;;;;5053852;28;20031;-73
2022/08/26 07:08:50;;;;;;;25.55;17.60;;;26.20;59.50;;;;;;5036067;28;20133;-73
2022/08/26 07:11:18;;;;;;;19.77;11.95;;;26.20;59.10;;;;;;5053915;28;20513;-73
2022/08/26 07:13:45;;;;;;;12.65;8.80;;;26.30;59.10;;;;;;5035932;28;20491;-73
2022/08/26 07:16:13;;;;;;;27.77;9.45;;;26.30;58.90;;;;;;5035823;28;20021;-73
2022/08/26 07:18:41;;;;;;;22.23;8.10;;;26.40;59.50;;;;;;5035926;28;20024;-71
2022/08/26 07:21:09;;;;;;;12.07;8.25;;;26.50;58.70;;;;;;5030036;28;20021;-72
2022/08/26 07:23:36;;;;;;;14.32;8.82;;;26.60;58.50;;;;;;5033861;28;20425;-72
2022/08/26 07:26:11;;;;;;;22.80;10.55;;;26.70;58.30;;;;;;5034587;28;20026;-72
2022/08/26 07:28:37;;;;;;;15.20;7.82;;;26.80;57.90;;;;;;5053526;28;20091;-72
2022/08/26 07:31:07;;;;;;;13.93;8.25;;;26.90;57.80;;;;;;5053459;28;20021;-72
2022/08/26 07:33:34;;;;;;;15.48;8.45;;;27.00;57.50;;;;;;5053521;28;20024;-72
2022/08/26 07:36:00;;;;;;;14.27;8.75;;;27.10;57.50;;;;;;5053228;28;20108;-72
2022/08/26 07:38:27;;;;;;;10.80;8.15;;;27.20;57.20;;;;;;5035123;28;20028;-72
2022/08/26 07:40:53;;;;;;;13.55;9.23;;;27.20;56.90;;;;;;5053345;28;20025;-72
2022/08/26 07:43:18;;;;;;;19.73;8.95;;;27.40;57.10;;;;;;5035369;28;20083;-72
2022/08/26 07:45:44;;;;;;;14.25;8.88;;;27.40;56.20;;;;;;5053091;28;20039;-72
2022/08/26 07:48:11;;;;;;;14.55;8.55;;;27.50;56.10;;;;;;5053139;28;20021;-72
2022/08/26 07:50:37;;;;;;;15.45;8.82;;;27.50;55.60;;;;;;5053183;28;20052;-72
2022/08/26 07:53:03;;;;;;;14.60;8.35;;;27.60;55.50;;;;;;5038778;28;20407;-72
2022/08/26 07:55:29;;;;;;;15.40;9.40;;;27.70;55.60;;;;;;5033335;28;20368;-72
2022/08/26 07:57:56;;;;;;;14.00;8.18;;;27.70;55.40;;;;;;5048305;28;20497;-72
2022/08/26 08:00:22;;;;;;;14.95;8.60;;;27.80;55.20;;;;;;5053170;28;20072;-71
2022/08/26 08:02:48;;;;;;;13.38;8.75;;;27.90;54.90;;;;;;5053110;28;20023;-72
2022/08/26 08:05:16;;;;;;;14.05;9.35;;;28.10;55.00;;;;;;5053054;28;20381;-72
2022/08/26 08:07:45;;;;;;;15.20;8.88;;;28.20;54.80;;;;;;5052855;28;20021;-72
2022/08/26 08:10:15;;;;;;;18.30;10.38;;;28.30;54.60;;;;;;5053042;28;20029;-72
2022/08/26 08:12:41;;;;;;;17.00;8.77;;;28.40;54.20;;;;;;5035071;28;20029;-72
2022/08/26 08:15:08;;;;;;;14.52;9.77;;;28.60;54.10;;;;;;5034966;28;20025;-72
2022/08/26 08:17:35;;;;;;;15.35;10.35;;;28.70;53.90;;;;;;5034922;28;20029;-72
2022/08/26 08:20:02;;;;;;;21.48;11.95;;;28.90;53.50;;;;;;5035011;28;20108;-72
2022/08/26 08:22:27;;;;;;;32.55;12.60;;;29.10;53.90;;;;;;5052548;28;20041;-72
2022/08/26 08:24:53;;;;;;;16.38;9.73;;;29.20;52.50;;;;;;5052772;28;20025;-72
2022/08/26 08:27:19;;;;;;;21.85;11.38;;;29.30;52.30;;;;;;5041389;28;20037;-73
2022/08/26 08:29:46;;;;;;;22.38;9.52;;;29.40;51.60;;;;;;5032878;28;20390;-73
2022/08/26 08:32:12;;;;;;;19.02;11.30;;;29.50;51.30;;;;;;5032791;28;20471;-72
2022/08/26 08:34:38;;;;;;;20.40;10.07;;;29.50;51.30;;;;;;5032517;28;20120;-72
2022/08/26 08:37:05;;;;;;;21.15;10.93;;;29.60;51.20;;;;;;5032583;28;20072;-73
2022/08/26 08:39:32;;;;;;;19.05;10.40;;;29.70;50.80;;;;;;5032836;28;20033;-73
2022/08/26 08:42:32;;;;;;;17.45;9.77;;;29.70;50.50;;;;;;5031441;28;20025;-71
2022/08/26 08:45:02;;;;;;;16.83;9.27;;;29.80;50.80;;;;;;5031365;28;20025;-72
2022/08/26 08:47:28;;;;;;;16.75;9.52;;;29.80;50.60;;;;;;5031484;28;20028;-71
2022/08/26 08:50:10;;;;;;;22.10;9.68;;;29.90;50.60;;;;;;5031379;28;20112;-72
2022/08/26 08:52:40;;;;;;;16.30;9.38;;;30.00;50.30;;;;;;5013173;28;20411;-72
2022/08/26 08:55:07;;;;;;;19.50;9.02;;;30.00;49.90;;;;;;5013382;28;20038;-72
2022/08/26 08:58:02;;;;;;;13.95;9.25;;;30.00;49.80;;;;;;5036484;28;20544;-72
2022/08/26 09:00:34;;;;;;;17.33;9.00;;;30.00;50.40;;;;;;5050951;28;20095;-72
2022/08/26 09:03:31;;;;;;;16.60;10.25;;;30.10;49.60;;;;;;5052594;28;20017;-72
2022/08/26 09:06:00;;;;;;;15.18;9.20;;;30.10;49.20;;;;;;5049449;28;20033;-71
2022/08/26 09:08:31;;;;;;;14.35;10.25;;;30.10;49.40;;;;;;5035651;28;20032;-72
2022/08/26 09:10:59;;;;;;;15.38;10.07;;;30.10;49.70;;;;;;5056239;28;20494;-72
2022/08/26 09:13:26;;;;;;;23.25;10.18;;;30.20;49.70;;;;;;5056409;28;20075;-72
2022/08/26 09:15:58;;;;;;;16.75;9.15;;;30.20;49.90;;;;;;5056357;28;20383;-72
2022/08/26 09:18:29;;;;;;;20.30;11.13;;;30.30;49.80;;;;;;5056354;28;20427;-73
2022/08/26 09:21:02;;;;;;;22.20;10.73;;;30.30;49.40;;;;;;5030126;28;20506;-73
2022/08/26 09:23:29;;;;;;;19.08;10.93;;;30.30;49.10;;;;;;5036520;28;20045;-73
2022/08/26 09:25:58;;;;;;;16.45;10.88;;;30.40;49.20;;;;;;5036269;28;20017;-73
2022/08/26 09:28:26;;;;;;;14.02;8.45;;;30.40;49.00;;;;;;5055423;28;20070;-73
2022/08/26 09:31:09;;;;;;;25.30;10.43;;;30.50;49.40;;;;;;5056122;28;20482;-72
2022/08/26 09:33:35;;;;;;;19.40;10.05;;;30.60;49.10;;;;;;5038279;28;20032;-72
2022/08/26 09:36:33;;;;;;;25.38;11.93;;;30.70;48.90;;;;;;5055986;28;20104;-73
2022/08/26 09:38:59;;;;;;;15.75;10.32;;;30.80;48.90;;;;;;5038084;28;20025;-73
2022/08/26 09:41:34;;;;;;;20.77;9.65;;;30.90;48.40;;;;;;5038110;28;20025;-73
2022/08/26 09:44:14;;;;;;;13.93;9.43;;;30.90;48.50;;;;;;5055855;28;20031;-71
2022/08/26 09:46:45;;;;;;;24.33;11.27;;;31.00;48.40;;;;;;5037939;28;20364;-72
2022/08/26 09:49:23;;;;;;;20.90;10.23;;;31.10;47.70;;;;;;5051258;28;20021;-72
2022/08/26 09:52:06;;;;;;;20.92;10.48;;;31.30;48.00;;;;;;5035816;28;20025;-72
2022/08/26 09:54:32;;;;;;;16.98;9.43;;;31.40;47.70;;;;;;5035760;28;20096;-71
2022/08/26 09:57:16;;;;;;;16.98;10.45;;;31.50;47.50;;;;;;5042366;28;20029;-72
2022/08/26 09:59:42;;;;;;;;;;;31.60;47.40;;;;;;5056047;28;20053;-72
2022/08/26 10:02:36;;;;;;;23.13;10.38;;;31.70;48.40;;;;;;5055591;28;19969;-72
2022/08/26 10:05:06;;;;;;;18.83;9.43;;;31.80;47.00;;;;;;5053630;28;20040;-72
2022/08/26 10:07:49;;;;;;;17.95;9.52;;;31.80;46.10;;;;;;5055495;28;20036;-72
2022/08/26 10:10:23;;;;;;;15.13;8.03;;;31.80;46.10;;;;;;5055487;28;20100;-72
2022/08/26 10:13:11;;;;;;;17.98;8.38;;;31.80;46.00;;;;;;5055300;28;20021;-72
2022/08/26 10:16:14;;;;;;;15.63;9.52;;;31.80;46.20;;;;;;5037435;28;20028;-71
2022/08/26 10:18:45;;;;;;;18.33;8.07;;;31.70;45.60;;;;;;5052349;28;20051;-72
2022/08/26 10:21:25;;;;;;;15.60;8.30;;;31.70;45.70;;;;;;5054225;28;20021;-72
2022/08/26 10:23:54;;;;;;;11.85;7.85;;;31.70;45.90;;;;;;5037245;28;20045;-72
2022/08/26 10:27:03;;;;;;;12.45;7.70;;;31.70;45.90;;;;;;5053575;28;20049;-72
2022/08/26 10:29:39;;;;;;;19.63;8.15;;;31.60;46.40;;;;;;5035206;28;20390;-72
2022/08/26 10:32:29;;;;;;;15.35;8.02;;;31.60;46.00;;;;;;5035116;28;20025;-72
2022/08/26 10:34:55;;;;;;;12.65;8.25;;;31.60;46.10;;;;;;5033528;28;20483;-72
2022/08/26 10:37:29;;;;;;;11.63;8.27;;;31.60;46.30;;;;;;5033565;28;20053;-72
2022/08/26 10:40:07;;;;;;;14.23;7.82;;;31.60;46.40;;;;;;5035047;28;20389;-72
2022/08/26 10:42:53;;;;;;;13.77;7.43;;;31.70;46.50;;;;;;5034885;28;20526;-73
2022/08/26 10:45:24;;;;;;;16.20;8.40;;;31.70;46.70;;;;;;5034811;28;20025;-72
2022/08/26 10:47:54;;;;;;;13.52;8.18;;;31.80;46.60;;;;;;5034648;28;20071;-72
2022/08/26 10:50:24;;;;;;;12.75;8.40;;;31.90;46.60;;;;;;5034699;28;20021;-71
2022/08/26 10:53:09;;;;;;;14.45;9.10;;;31.90;46.50;;;;;;5034722;28;20029;-72
2022/08/26 10:56:04;;;;;;;14.55;8.93;;;31.90;46.40;;;;;;5033339;28;20021;-72
2022/08/26 10:59:20;;;;;;;15.25;7.90;;;31.90;45.90;;;;;;5049256;28;20104;-73
2022/08/26 11:02:09;;;;;;;15.18;9.55;;;31.90;46.10;;;;;;5010296;28;20045;-73
2022/08/26 11:04:53;;;;;;;13.70;8.00;;;31.80;45.60;;;;;;5054415;28;20025;-73
2022/08/26 11:07:37;;;;;;;;;;;31.80;46.00;;;;;;5054752;28;20447;-73
2022/08/26 11:10:15;;;;;;;14.90;7.93;;;31.70;46.50;;;;;;5053079;28;20305;-72
2022/08/26 11:12:41;;;;;;;15.25;7.97;;;31.70;46.40;;;;;;5054280;28;20052;-71
2022/08/26 11:15:35;;;;;;;12.85;7.63;;;31.70;46.50;;;;;;5052998;28;20106;-72
2022/08/26 11:18:04;;;;;;;15.48;7.75;;;31.60;46.60;;;;;;5053964;28;20079;-72
2022/08/26 11:20:35;;;;;;;14.32;7.68;;;31.60;46.30;;;;;;5032725;28;20025;-72
2022/08/26 11:23:19;;;;;;;11.25;7.32;;;31.60;46.50;;;;;;5029510;28;20072;-72
2022/08/26 11:26:00;;;;;;;9.77;7.65;;;31.60;46.70;;;;;;5033920;28;20029;-73
2022/08/26 11:28:44;;;;;;;13.27;7.97;;;31.60;46.50;;;;;;5032703;28;20438;-72
2022/08/26 11:31:11;;;;;;;;;;;31.60;46.50;;;;;;5032988;28;20025;-72
2022/08/26 11:33:42;;;;;;;16.05;7.72;;;31.60;46.90;;;;;;5033789;28;19912;-73
2022/08/26 11:36:10;;;;;;;14.32;7.60;;;31.60;46.60;;;;;;5033873;28;20565;-73
2022/08/26 11:38:41;;;;;;;15.57;8.88;;;31.60;46.90;;;;;;5032303;28;20037;-73
2022/08/26 11:41:10;;;;;;;13.27;7.80;;;31.50;46.80;;;;;;5033729;28;20109;-72
2022/08/26 11:43:38;;;;;;;14.93;7.43;;;31.50;46.70;;;;;;5033680;28;20026;-71
2022/08/26 11:46:07;;;;;;;11.07;7.18;;;31.50;46.70;;;;;;5033552;28;20105;-72
2022/08/26 11:48:43;;;;;;;24.08;9.00;;;31.50;46.60;;;;;;5033582;28;20030;-72
2022/08/26 11:51:14;;;;;;;11.98;8.23;;;31.40;46.70;;;;;;5033578;28;20186;-73
2022/08/26 11:53:43;;;;;;;15.65;7.57;;;31.40;46.70;;;;;;5033547;28;20021;-73
2022/08/26 11:56:34;;;;;;;16.02;8.60;;;31.30;46.80;;;;;;5033499;28;20029;-73
2022/08/26 11:59:02;;;;;;;17.60;7.97;;;31.30;46.70;;;;;;5024774;28;20065;-73
2022/08/26 12:01:34;;;;;;;14.45;7.32;;;31.30;46.60;;;;;;5015735;28;20045;-72
2022/08/26 12:04:03;;;;;;;14.05;8.68;;;31.20;46.60;;;;;;5033399;28;20052;-72
2022/08/26 12:06:34;;;;;;;22.40;7.53;;;31.20;46.60;;;;;;5033219;28;20029;-72
2022/08/26 12:09:07;;;;;;;16.90;7.32;;;31.10;46.40;;;;;;5033336;28;20017;-71
2022/08/26 12:11:35;;;;;;;10.60;7.50;;;31.10;46.50;;;;;;5033525;28;20093;-71
2022/08/26 12:14:04;;;;;;;15.90;7.38;;;31.10;46.60;;;;;;5033114;28;20030;-72
2022/08/26 12:16:33;;;;;;;13.60;7.88;;;31.10;46.40;;;;;;5015359;28;20080;-73
2022/08/26 12:18:59;;;;;;;11.18;7.15;;;31.00;47.10;;;;;;5033120;28;20021;-72
2022/08/26 12:21:29;;;;;;;16.08;7.60;;;31.00;46.40;;;;;;5032853;28;20491;-72
2022/08/26 12:23:57;;;;;;;12.13;7.43;;;31.00;46.70;;;;;;5033174;28;20025;-72
2022/08/26 12:26:25;;;;;;;16.40;7.85;;;31.00;46.60;;;;;;5033389;28;20017;-72
2022/08/26 12:28:56;;;;;;;11.00;6.60;;;31.00;46.50;;;;;;5052986;28;20070;-72
2022/08/26 12:31:26;;;;;;;12.23;6.93;;;31.00;46.40;;;;;;5052967;28;20021;-72
2022/08/26 12:33:54;;;;;;;11.63;7.25;;;31.00;46.50;;;;;;5052761;28;20017;-73
2022/08/26 12:36:26;;;;;;;11.80;7.00;;;31.10;46.40;;;;;;5052785;28;20104;-73
2022/08/26 12:38:53;;;;;;;11.82;6.15;;;31.10;46.40;;;;;;5052804;28;20021;-73
2022/08/26 12:41:40;;;;;;;10.38;6.53;;;31.10;46.20;;;;;;5052818;28;20021;-73
2022/08/26 12:44:06;;;;;;;12.00;6.95;;;31.10;45.90;;;;;;5058058;28;20017;-72
2022/08/26 12:46:32;;;;;;;12.50;6.63;;;31.10;45.70;;;;;;5042176;28;20100;-73
2022/08/26 12:49:00;;;;;;;18.08;7.65;;;31.10;45.90;;;;;;5039430;28;20045;-73
2022/08/26 12:51:33;;;;;;;14.50;7.07;;;31.20;46.00;;;;;;5038327;28;20026;-72
2022/08/26 12:54:05;;;;;;;10.82;5.70;;;31.20;45.70;;;;;;5038507;28;20495;-72
2022/08/26 12:56:37;;;;;;;14.00;6.28;;;31.20;45.90;;;;;;5040486;28;20030;-73
2022/08/26 12:59:21;;;;;;;15.02;7.68;;;31.30;45.80;;;;;;5057680;28;20055;-72
2022/08/26 13:01:48;;;;;;;14.50;6.35;;;31.30;45.60;;;;;;5059396;28;20112;-72